sensor_id;sensor_type;location;lat;lon;timestamp;temperature;humidity
38866;DHT22;62686;48.984;8.394;2023-03-31T00:01:08;11.50;99.90
38866;DHT22;62686;48.984;8.394;2023-03-31T00:03:36;11.60;99.90
38866;DHT22;62686;48.984;8.394;2023-03-31T00:06:12;11.70;99.90
38866;DHT22;62686;48.984;8.394;2023-03-31T00:08:44;11.90;99.90
38866;DHT22;62686;48.984;8.394;2023-03-31T00:11:13;12.00;99.90
38866;DHT22;62686;48.984;8.394;2023-03-31T00:13:41;12.10;99.90
38866;DHT22;62686;48.984;8.394;2023-03-31T00:16:10;12.20;99.90
38866;DHT22;62686;48.984;8.394;2023-03-31T00:18:39;12.30;99.90
38866;DHT22;62686;48.984;8.394;2023-03-31T00:21:16;12.40;99.90
38866;DHT22;62686;48.984;8.394;2023-03-31T00:23:52;12.50;99.90
38866;DHT22;62686;48.984;8.394;2023-03-31T00:26:21;12.50;99.90
38866;DHT22;62686;48.984;8.394;2023-03-31T00:28:49;12.60;99.90
38866;DHT22;62686;48.984;8.394;2023-03-31T00:31:18;12.60;99.90
38866;DHT22;62686;48.984;8.394;2023-03-31T00:33:47;12.70;99.90
38866;DHT22;62686;48.984;8.394;2023-03-31T00:36:17;12.70;99.90
38866;DHT22;62686;48.984;8.394;2023-03-31T00:38:53;12.70;99.90
38866;DHT22;62686;48.984;8.394;2023-03-31T00:41:22;12.80;99.90
38866;DHT22;62686;48.984;8.394;2023-03-31T00:44:05;12.80;99.90
38866;DHT22;62686;48.984;8.394;2023-03-31T00:46:37;12.90;99.90
38866;DHT22;62686;48.984;8.394;2023-03-31T00:49:13;13.00;99.90
38866;DHT22;62686;48.984;8.394;2023-03-31T00:51:45;13.00;99.90
38866;DHT22;62686;48.984;8.394;2023-03-31T00:54:15;12.90;99.90
38866;DHT22;62686;48.984;8.394;2023-03-31T00:56:46;12.80;99.90
38866;DHT22;62686;48.984;8.394;2023-03-31T00:59:16;12.80;99.90
38866;DHT22;62686;48.984;8.394;2023-03-31T01:01:45;12.70;99.90
38866;DHT22;62686;48.984;8.394;2023-03-31T01:04:18;12.40;99.90
38866;DHT22;62686;48.984;8.394;2023-03-31T01:06:55;12.00;99.90
38866;DHT22;62686;48.984;8.394;2023-03-31T01:09:29;11.80;99.90
38866;DHT22;62686;48.984;8.394;2023-03-31T01:12:02;11.40;99.90
38866;DHT22;62686;48.984;8.394;2023-03-31T01:14:31;11.30;99.90
38866;DHT22;62686;48.984;8.394;2023-03-31T01:16:59;11.10;99.90
38866;DHT22;62686;48.984;8.394;2023-03-31T01:19:37;10.90;99.90
38866;DHT22;62686;48.984;8.394;2023-03-31T01:22:38;10.70;99.90
38866;DHT22;62686;48.984;8.394;2023-03-31T01:25:38;10.70;99.90
38866;DHT22;62686;48.984;8.394;2023-03-31T01:28:22;10.70;99.90
38866;DHT22;62686;48.984;8.394;2023-03-31T01:31:47;10.70;99.90
38866;DHT22;62686;48.984;8.394;2023-03-31T01:34:35;10.70;99.90
38866;DHT22;62686;48.984;8.394;2023-03-31T01:40:16;10.70;99.90
38866;DHT22;62686;48.984;8.394;2023-03-31T01:42:52;10.70;99.90
38866;DHT22;62686;48.984;8.394;2023-03-31T01:45:28;10.70;99.90
38866;DHT22;62686;48.984;8.394;2023-03-31T01:48:03;10.70;99.90
38866;DHT22;62686;48.984;8.394;2023-03-31T01:50:37;10.60;99.90
38866;DHT22;62686;48.984;8.394;2023-03-31T01:53:12;10.60;99.90
38866;DHT22;62686;48.984;8.394;2023-03-31T01:55:47;10.60;99.90
38866;DHT22;62686;48.984;8.394;2023-03-31T01:58:20;10.50;99.90
38866;DHT22;62686;48.984;8.394;2023-03-31T02:00:57;10.40;99.90
38866;DHT22;62686;48.984;8.394;2023-03-31T02:03:29;10.40;99.90
38866;DHT22;62686;48.984;8.394;2023-03-31T02:06:05;10.40;99.90
38866;DHT22;62686;48.984;8.394;2023-03-31T02:08:38;10.40;99.90
38866;DHT22;62686;48.984;8.394;2023-03-31T02:11:09;10.50;99.90
38866;DHT22;62686;48.984;8.394;2023-03-31T02:13:40;10.60;99.90
38866;DHT22;62686;48.984;8.394;2023-03-31T02:16:12;10.60;99.90
38866;DHT22;62686;48.984;8.394;2023-03-31T02:18:46;10.50;99.90
38866;DHT22;62686;48.984;8.394;2023-03-31T02:21:16;10.50;99.90
38866;DHT22;62686;48.984;8.394;2023-03-31T02:23:45;10.40;99.90
38866;DHT22;62686;48.984;8.394;2023-03-31T02:26:19;10.30;99.90
38866;DHT22;62686;48.984;8.394;2023-03-31T02:28:50;10.30;99.90
38866;DHT22;62686;48.984;8.394;2023-03-31T02:31:26;10.20;99.90
38866;DHT22;62686;48.984;8.394;2023-03-31T02:33:56;10.20;99.90
38866;DHT22;62686;48.984;8.394;2023-03-31T02:36:24;10.10;99.90
38866;DHT22;62686;48.984;8.394;2023-03-31T02:38:54;10.00;99.90
38866;DHT22;62686;48.984;8.394;2023-03-31T02:41:25;9.90;99.90
38866;DHT22;62686;48.984;8.394;2023-03-31T02:43:55;9.80;99.90
38866;DHT22;62686;48.984;8.394;2023-03-31T02:46:24;9.80;99.90
38866;DHT22;62686;48.984;8.394;2023-03-31T02:48:54;9.70;99.90
38866;DHT22;62686;48.984;8.394;2023-03-31T02:54:59;9.60;99.90
38866;DHT22;62686;48.984;8.394;2023-03-31T02:57:49;9.50;99.90
38866;DHT22;62686;48.984;8.394;2023-03-31T03:00:28;9.40;99.90
38866;DHT22;62686;48.984;8.394;2023-03-31T03:03:12;9.30;99.90
38866;DHT22;62686;48.984;8.394;2023-03-31T03:05:48;9.20;99.90
38866;DHT22;62686;48.984;8.394;2023-03-31T03:08:27;9.10;99.90
38866;DHT22;62686;48.984;8.394;2023-03-31T03:11:03;9.00;99.90
38866;DHT22;62686;48.984;8.394;2023-03-31T03:13:35;8.90;99.90
38866;DHT22;62686;48.984;8.394;2023-03-31T03:16:10;8.90;99.90
38866;DHT22;62686;48.984;8.394;2023-03-31T03:18:54;8.80;99.90
38866;DHT22;62686;48.984;8.394;2023-03-31T03:21:23;8.80;99.90
38866;DHT22;62686;48.984;8.394;2023-03-31T03:23:51;8.70;99.90
38866;DHT22;62686;48.984;8.394;2023-03-31T03:26:20;8.70;99.90
38866;DHT22;62686;48.984;8.394;2023-03-31T03:28:51;8.70;99.90
38866;DHT22;62686;48.984;8.394;2023-03-31T03:31:20;8.70;99.90
38866;DHT22;62686;48.984;8.394;2023-03-31T03:33:52;8.70;99.90
38866;DHT22;62686;48.984;8.394;2023-03-31T03:36:20;8.60;99.90
38866;DHT22;62686;48.984;8.394;2023-03-31T03:38:49;8.60;99.90
38866;DHT22;62686;48.984;8.394;2023-03-31T03:41:17;8.50;99.90
38866;DHT22;62686;48.984;8.394;2023-03-31T03:43:45;8.40;99.90
38866;DHT22;62686;48.984;8.394;2023-03-31T03:46:15;8.30;99.90
38866;DHT22;62686;48.984;8.394;2023-03-31T03:48:43;8.30;99.90
38866;DHT22;62686;48.984;8.394;2023-03-31T03:51:12;8.40;99.90
38866;DHT22;62686;48.984;8.394;2023-03-31T03:53:40;8.50;99.90
38866;DHT22;62686;48.984;8.394;2023-03-31T03:56:08;8.50;99.90
38866;DHT22;62686;48.984;8.394;2023-03-31T03:58:36;8.60;99.90
38866;DHT22;62686;48.984;8.394;2023-03-31T04:01:04;8.60;99.90
38866;DHT22;62686;48.984;8.394;2023-03-31T04:03:34;8.70;99.90
38866;DHT22;62686;48.984;8.394;2023-03-31T04:06:03;8.70;99.90
38866;DHT22;62686;48.984;8.394;2023-03-31T04:08:31;8.80;99.90
38866;DHT22;62686;48.984;8.394;2023-03-31T04:10:59;8.80;99.90
38866;DHT22;62686;48.984;8.394;2023-03-31T04:13:28;8.90;99.90
38866;DHT22;62686;48.984;8.394;2023-03-31T04:15:56;9.00;99.90
38866;DHT22;62686;48.984;8.394;2023-03-31T04:18:25;9.00;99.90
38866;DHT22;62686;48.984;8.394;2023-03-31T04:20:54;9.00;99.90
38866;DHT22;62686;48.984;8.394;2023-03-31T04:23:30;9.00;99.90
38866;DHT22;62686;48.984;8.394;2023-03-31T04:25:59;9.10;99.90
38866;DHT22;62686;48.984;8.394;2023-03-31T04:28:28;9.10;99.90
38866;DHT22;62686;48.984;8.394;2023-03-31T04:31:01;9.10;99.90
38866;DHT22;62686;48.984;8.394;2023-03-31T04:33:29;9.20;99.90
38866;DHT22;62686;48.984;8.394;2023-03-31T04:36:01;9.20;99.90
38866;DHT22;62686;48.984;8.394;2023-03-31T04:38:32;9.20;99.90
38866;DHT22;62686;48.984;8.394;2023-03-31T04:41:01;9.20;99.90
38866;DHT22;62686;48.984;8.394;2023-03-31T04:43:29;9.20;99.90
38866;DHT22;62686;48.984;8.394;2023-03-31T04:45:57;9.20;99.90
38866;DHT22;62686;48.984;8.394;2023-03-31T04:48:26;9.30;99.90
38866;DHT22;62686;48.984;8.394;2023-03-31T04:50:54;9.30;99.90
38866;DHT22;62686;48.984;8.394;2023-03-31T04:53:23;9.40;99.90
38866;DHT22;62686;48.984;8.394;2023-03-31T04:55:52;9.30;99.90
38866;DHT22;62686;48.984;8.394;2023-03-31T04:58:20;9.40;99.90
38866;DHT22;62686;48.984;8.394;2023-03-31T05:00:48;9.40;99.90
38866;DHT22;62686;48.984;8.394;2023-03-31T05:03:16;9.40;99.90
38866;DHT22;62686;48.984;8.394;2023-03-31T05:05:45;9.40;99.90
38866;DHT22;62686;48.984;8.394;2023-03-31T05:08:13;9.40;99.90
38866;DHT22;62686;48.984;8.394;2023-03-31T05:10:43;9.40;99.90
38866;DHT22;62686;48.984;8.394;2023-03-31T05:13:11;9.40;99.90
38866;DHT22;62686;48.984;8.394;2023-03-31T05:15:39;9.30;99.90
38866;DHT22;62686;48.984;8.394;2023-03-31T05:18:10;9.40;99.90
38866;DHT22;62686;48.984;8.394;2023-03-31T05:20:39;9.40;99.90
38866;DHT22;62686;48.984;8.394;2023-03-31T05:23:07;9.40;99.90
38866;DHT22;62686;48.984;8.394;2023-03-31T05:25:35;9.40;99.90
38866;DHT22;62686;48.984;8.394;2023-03-31T05:28:05;9.30;99.90
38866;DHT22;62686;48.984;8.394;2023-03-31T05:30:33;9.30;99.90
38866;DHT22;62686;48.984;8.394;2023-03-31T05:33:01;9.30;99.90
38866;DHT22;62686;48.984;8.394;2023-03-31T05:35:30;9.30;99.90
38866;DHT22;62686;48.984;8.394;2023-03-31T05:37:58;9.40;99.90
38866;DHT22;62686;48.984;8.394;2023-03-31T05:40:26;9.40;99.90
38866;DHT22;62686;48.984;8.394;2023-03-31T05:42:54;9.40;99.90
38866;DHT22;62686;48.984;8.394;2023-03-31T05:45:24;9.40;99.90
38866;DHT22;62686;48.984;8.394;2023-03-31T05:47:52;9.40;99.90
38866;DHT22;62686;48.984;8.394;2023-03-31T05:50:20;9.50;99.90
38866;DHT22;62686;48.984;8.394;2023-03-31T05:52:49;9.50;99.90
38866;DHT22;62686;48.984;8.394;2023-03-31T05:55:17;9.50;99.90
38866;DHT22;62686;48.984;8.394;2023-03-31T05:57:45;9.50;99.90
38866;DHT22;62686;48.984;8.394;2023-03-31T06:00:14;9.50;99.90
38866;DHT22;62686;48.984;8.394;2023-03-31T06:02:45;9.60;99.90
38866;DHT22;62686;48.984;8.394;2023-03-31T06:05:13;9.60;99.90
38866;DHT22;62686;48.984;8.394;2023-03-31T06:07:42;9.60;99.90
38866;DHT22;62686;48.984;8.394;2023-03-31T06:10:10;9.70;99.90
38866;DHT22;62686;48.984;8.394;2023-03-31T06:12:38;9.70;99.90
38866;DHT22;62686;48.984;8.394;2023-03-31T06:15:07;9.70;99.90
38866;DHT22;62686;48.984;8.394;2023-03-31T06:17:36;9.70;99.90
38866;DHT22;62686;48.984;8.394;2023-03-31T06:20:07;9.80;99.90
38866;DHT22;62686;48.984;8.394;2023-03-31T06:22:42;9.90;99.90
38866;DHT22;62686;48.984;8.394;2023-03-31T06:25:10;10.10;99.90
38866;DHT22;62686;48.984;8.394;2023-03-31T06:27:38;10.20;99.90
38866;DHT22;62686;48.984;8.394;2023-03-31T06:30:08;10.30;99.90
38866;DHT22;62686;48.984;8.394;2023-03-31T06:32:36;10.40;99.90
38866;DHT22;62686;48.984;8.394;2023-03-31T06:35:07;10.40;99.90
38866;DHT22;62686;48.984;8.394;2023-03-31T06:37:35;10.50;99.90
38866;DHT22;62686;48.984;8.394;2023-03-31T06:40:04;10.50;99.90
38866;DHT22;62686;48.984;8.394;2023-03-31T06:42:33;10.60;99.90
38866;DHT22;62686;48.984;8.394;2023-03-31T06:45:01;10.60;99.90
38866;DHT22;62686;48.984;8.394;2023-03-31T06:47:29;10.70;99.90
38866;DHT22;62686;48.984;8.394;2023-03-31T06:49:58;10.70;99.90
38866;DHT22;62686;48.984;8.394;2023-03-31T06:52:28;10.70;99.90
38866;DHT22;62686;48.984;8.394;2023-03-31T06:54:56;10.80;99.90
38866;DHT22;62686;48.984;8.394;2023-03-31T06:57:26;10.80;99.90
38866;DHT22;62686;48.984;8.394;2023-03-31T06:59:54;10.80;99.90
38866;DHT22;62686;48.984;8.394;2023-03-31T07:02:23;10.80;99.90
38866;DHT22;62686;48.984;8.394;2023-03-31T07:04:51;11.00;99.90
38866;DHT22;62686;48.984;8.394;2023-03-31T07:07:19;11.20;99.90
38866;DHT22;62686;48.984;8.394;2023-03-31T07:09:49;11.40;99.90
38866;DHT22;62686;48.984;8.394;2023-03-31T07:12:17;11.40;99.90
38866;DHT22;62686;48.984;8.394;2023-03-31T07:14:46;11.50;99.90
38866;DHT22;62686;48.984;8.394;2023-03-31T07:17:14;11.50;99.90
38866;DHT22;62686;48.984;8.394;2023-03-31T07:19:43;11.60;99.90
38866;DHT22;62686;48.984;8.394;2023-03-31T07:22:13;11.80;99.90
38866;DHT22;62686;48.984;8.394;2023-03-31T07:24:42;12.50;99.90
38866;DHT22;62686;48.984;8.394;2023-03-31T07:27:11;13.90;99.90
38866;DHT22;62686;48.984;8.394;2023-03-31T07:29:39;15.30;99.90
38866;DHT22;62686;48.984;8.394;2023-03-31T07:32:08;15.80;99.90
38866;DHT22;62686;48.984;8.394;2023-03-31T07:34:36;17.20;99.90
38866;DHT22;62686;48.984;8.394;2023-03-31T07:37:06;18.00;99.90
38866;DHT22;62686;48.984;8.394;2023-03-31T07:39:34;17.30;99.90
38866;DHT22;62686;48.984;8.394;2023-03-31T07:42:03;16.10;99.90
38866;DHT22;62686;48.984;8.394;2023-03-31T07:44:33;15.30;99.90
38866;DHT22;62686;48.984;8.394;2023-03-31T07:47:02;14.90;99.90
38866;DHT22;62686;48.984;8.394;2023-03-31T07:49:33;14.60;99.90
38866;DHT22;62686;48.984;8.394;2023-03-31T07:52:01;14.10;99.90
38866;DHT22;62686;48.984;8.394;2023-03-31T07:54:30;13.70;99.90
38866;DHT22;62686;48.984;8.394;2023-03-31T07:56:58;13.40;99.90
38866;DHT22;62686;48.984;8.394;2023-03-31T07:59:31;13.20;99.90
38866;DHT22;62686;48.984;8.394;2023-03-31T08:02:00;12.90;99.90
38866;DHT22;62686;48.984;8.394;2023-03-31T08:04:29;12.80;99.90
38866;DHT22;62686;48.984;8.394;2023-03-31T08:06:57;13.00;99.90
38866;DHT22;62686;48.984;8.394;2023-03-31T08:09:25;13.20;99.90
38866;DHT22;62686;48.984;8.394;2023-03-31T08:11:54;13.70;99.90
38866;DHT22;62686;48.984;8.394;2023-03-31T08:14:22;14.10;99.90
38866;DHT22;62686;48.984;8.394;2023-03-31T08:16:56;14.30;99.90
38866;DHT22;62686;48.984;8.394;2023-03-31T08:19:27;15.00;99.90
38866;DHT22;62686;48.984;8.394;2023-03-31T08:21:55;14.70;99.90
38866;DHT22;62686;48.984;8.394;2023-03-31T08:24:27;14.20;99.90
38866;DHT22;62686;48.984;8.394;2023-03-31T08:26:56;13.80;99.90
38866;DHT22;62686;48.984;8.394;2023-03-31T08:29:25;13.20;99.90
38866;DHT22;62686;48.984;8.394;2023-03-31T08:31:53;12.80;99.90
38866;DHT22;62686;48.984;8.394;2023-03-31T08:34:24;13.10;99.90
38866;DHT22;62686;48.984;8.394;2023-03-31T08:36:54;13.10;99.90
38866;DHT22;62686;48.984;8.394;2023-03-31T08:39:23;13.80;99.90
38866;DHT22;62686;48.984;8.394;2023-03-31T08:41:56;15.40;99.90
38866;DHT22;62686;48.984;8.394;2023-03-31T08:44:30;17.00;99.90
38866;DHT22;62686;48.984;8.394;2023-03-31T08:47:01;18.30;99.90
38866;DHT22;62686;48.984;8.394;2023-03-31T08:49:35;18.40;99.90
38866;DHT22;62686;48.984;8.394;2023-03-31T08:52:10;18.50;99.90
38866;DHT22;62686;48.984;8.394;2023-03-31T08:54:42;17.60;99.90
38866;DHT22;62686;48.984;8.394;2023-03-31T08:57:14;17.70;99.90
38866;DHT22;62686;48.984;8.394;2023-03-31T08:59:45;18.00;99.90
38866;DHT22;62686;48.984;8.394;2023-03-31T09:02:20;18.20;99.90
38866;DHT22;62686;48.984;8.394;2023-03-31T09:05:21;17.50;99.90
38866;DHT22;62686;48.984;8.394;2023-03-31T09:07:57;17.10;99.90
38866;DHT22;62686;48.984;8.394;2023-03-31T09:10:36;16.60;99.90
38866;DHT22;62686;48.984;8.394;2023-03-31T09:13:24;16.80;99.90
38866;DHT22;62686;48.984;8.394;2023-03-31T09:16:00;18.10;99.90
38866;DHT22;62686;48.984;8.394;2023-03-31T09:18:32;19.10;99.90
38866;DHT22;62686;48.984;8.394;2023-03-31T09:21:05;19.60;99.90
38866;DHT22;62686;48.984;8.394;2023-03-31T09:23:41;19.50;99.90
38866;DHT22;62686;48.984;8.394;2023-03-31T09:26:21;18.80;99.90
38866;DHT22;62686;48.984;8.394;2023-03-31T09:28:56;19.70;99.90
38866;DHT22;62686;48.984;8.394;2023-03-31T09:31:26;19.10;99.90
38866;DHT22;62686;48.984;8.394;2023-03-31T09:34:00;17.90;99.90
38866;DHT22;62686;48.984;8.394;2023-03-31T09:36:29;17.10;99.90
38866;DHT22;62686;48.984;8.394;2023-03-31T09:39:00;16.80;99.90
38866;DHT22;62686;48.984;8.394;2023-03-31T09:41:30;16.30;99.90
38866;DHT22;62686;48.984;8.394;2023-03-31T09:44:00;15.80;99.90
38866;DHT22;62686;48.984;8.394;2023-03-31T09:46:30;16.90;99.90
38866;DHT22;62686;48.984;8.394;2023-03-31T09:49:02;18.10;99.90
38866;DHT22;62686;48.984;8.394;2023-03-31T09:51:34;18.70;99.90
38866;DHT22;62686;48.984;8.394;2023-03-31T09:54:09;19.30;99.90
38866;DHT22;62686;48.984;8.394;2023-03-31T09:56:46;20.00;99.90
38866;DHT22;62686;48.984;8.394;2023-03-31T09:59:17;19.90;99.90
38866;DHT22;62686;48.984;8.394;2023-03-31T10:01:48;19.10;99.90
38866;DHT22;62686;48.984;8.394;2023-03-31T10:04:21;17.70;99.90
38866;DHT22;62686;48.984;8.394;2023-03-31T10:06:50;17.50;99.90
38866;DHT22;62686;48.984;8.394;2023-03-31T10:09:24;17.40;99.90
38866;DHT22;62686;48.984;8.394;2023-03-31T10:11:58;17.30;99.90
38866;DHT22;62686;48.984;8.394;2023-03-31T10:14:37;17.00;99.90
38866;DHT22;62686;48.984;8.394;2023-03-31T10:17:13;16.80;99.90
38866;DHT22;62686;48.984;8.394;2023-03-31T10:19:47;17.00;99.90
38866;DHT22;62686;48.984;8.394;2023-03-31T10:22:26;17.60;99.90
38866;DHT22;62686;48.984;8.394;2023-03-31T10:25:07;17.60;99.90
38866;DHT22;62686;48.984;8.394;2023-03-31T10:27:40;17.50;99.90
38866;DHT22;62686;48.984;8.394;2023-03-31T10:30:11;17.10;99.90
38866;DHT22;62686;48.984;8.394;2023-03-31T10:32:41;17.00;99.90
38866;DHT22;62686;48.984;8.394;2023-03-31T10:35:25;17.30;99.90
38866;DHT22;62686;48.984;8.394;2023-03-31T10:37:55;17.40;99.90
38866;DHT22;62686;48.984;8.394;2023-03-31T10:40:28;17.80;99.90
38866;DHT22;62686;48.984;8.394;2023-03-31T10:43:04;17.60;99.90
38866;DHT22;62686;48.984;8.394;2023-03-31T10:45:40;18.00;99.90
38866;DHT22;62686;48.984;8.394;2023-03-31T10:48:17;17.40;99.90
38866;DHT22;62686;48.984;8.394;2023-03-31T10:50:47;16.00;99.90
38866;DHT22;62686;48.984;8.394;2023-03-31T10:53:18;14.30;99.90
38866;DHT22;62686;48.984;8.394;2023-03-31T10:56:10;13.30;99.90
38866;DHT22;62686;48.984;8.394;2023-03-31T10:58:51;13.10;99.90
38866;DHT22;62686;48.984;8.394;2023-03-31T11:01:34;13.00;99.90
38866;DHT22;62686;48.984;8.394;2023-03-31T11:04:28;13.00;99.90
38866;DHT22;62686;48.984;8.394;2023-03-31T11:07:07;12.90;99.90
38866;DHT22;62686;48.984;8.394;2023-03-31T11:09:51;12.80;99.90
38866;DHT22;62686;48.984;8.394;2023-03-31T11:12:28;12.90;99.90
38866;DHT22;62686;48.984;8.394;2023-03-31T11:15:07;12.90;99.90
38866;DHT22;62686;48.984;8.394;2023-03-31T11:17:51;12.60;99.90
38866;DHT22;62686;48.984;8.394;2023-03-31T11:20:26;12.40;99.90
38866;DHT22;62686;48.984;8.394;2023-03-31T11:23:02;12.30;99.90
38866;DHT22;62686;48.984;8.394;2023-03-31T11:25:38;12.50;99.90
38866;DHT22;62686;48.984;8.394;2023-03-31T11:28:29;12.70;99.90
38866;DHT22;62686;48.984;8.394;2023-03-31T11:31:12;13.10;99.90
38866;DHT22;62686;48.984;8.394;2023-03-31T11:34:12;13.50;99.90
38866;DHT22;62686;48.984;8.394;2023-03-31T11:37:11;13.80;99.90
38866;DHT22;62686;48.984;8.394;2023-03-31T11:39:53;15.20;99.90
38866;DHT22;62686;48.984;8.394;2023-03-31T11:42:26;16.90;99.90
38866;DHT22;62686;48.984;8.394;2023-03-31T11:45:12;18.70;99.90
38866;DHT22;62686;48.984;8.394;2023-03-31T11:47:44;19.20;99.90
38866;DHT22;62686;48.984;8.394;2023-03-31T11:50:17;19.40;99.90
38866;DHT22;62686;48.984;8.394;2023-03-31T11:52:52;20.30;99.90
38866;DHT22;62686;48.984;8.394;2023-03-31T11:55:24;20.70;99.90
38866;DHT22;62686;48.984;8.394;2023-03-31T11:58:00;20.90;99.90
38866;DHT22;62686;48.984;8.394;2023-03-31T12:00:34;21.10;99.90
38866;DHT22;62686;48.984;8.394;2023-03-31T12:03:08;20.70;99.90
38866;DHT22;62686;48.984;8.394;2023-03-31T12:05:43;19.40;99.90
38866;DHT22;62686;48.984;8.394;2023-03-31T12:08:15;17.70;99.90
38866;DHT22;62686;48.984;8.394;2023-03-31T12:10:50;16.40;99.90
38866;DHT22;62686;48.984;8.394;2023-03-31T12:13:39;15.80;99.90
38866;DHT22;62686;48.984;8.394;2023-03-31T12:16:16;15.40;99.90
38866;DHT22;62686;48.984;8.394;2023-03-31T12:18:57;15.20;99.90
38866;DHT22;62686;48.984;8.394;2023-03-31T12:21:28;15.00;99.90
38866;DHT22;62686;48.984;8.394;2023-03-31T12:23:58;15.20;99.90
38866;DHT22;62686;48.984;8.394;2023-03-31T12:26:34;15.50;99.90
38866;DHT22;62686;48.984;8.394;2023-03-31T12:29:20;15.80;99.90
38866;DHT22;62686;48.984;8.394;2023-03-31T12:31:53;15.70;99.90
38866;DHT22;62686;48.984;8.394;2023-03-31T12:34:24;15.60;99.90
38866;DHT22;62686;48.984;8.394;2023-03-31T12:37:13;15.80;99.90
38866;DHT22;62686;48.984;8.394;2023-03-31T12:39:52;17.00;99.90
38866;DHT22;62686;48.984;8.394;2023-03-31T12:42:38;16.70;99.90
38866;DHT22;62686;48.984;8.394;2023-03-31T12:45:17;15.80;99.90
38866;DHT22;62686;48.984;8.394;2023-03-31T12:48:06;15.80;99.90
38866;DHT22;62686;48.984;8.394;2023-03-31T12:50:50;16.70;99.90
38866;DHT22;62686;48.984;8.394;2023-03-31T12:53:26;17.70;99.90
38866;DHT22;62686;48.984;8.394;2023-03-31T12:55:58;18.30;99.90
38866;DHT22;62686;48.984;8.394;2023-03-31T12:58:51;18.00;99.90
38866;DHT22;62686;48.984;8.394;2023-03-31T13:01:19;17.30;99.90
38866;DHT22;62686;48.984;8.394;2023-03-31T13:03:55;16.20;99.90
38866;DHT22;62686;48.984;8.394;2023-03-31T13:06:52;15.90;99.90
38866;DHT22;62686;48.984;8.394;2023-03-31T13:09:40;16.80;99.90
38866;DHT22;62686;48.984;8.394;2023-03-31T13:12:14;18.00;99.90
38866;DHT22;62686;48.984;8.394;2023-03-31T13:14:44;18.80;99.90
38866;DHT22;62686;48.984;8.394;2023-03-31T13:17:28;18.60;99.90
38866;DHT22;62686;48.984;8.394;2023-03-31T13:20:23;18.70;99.90
38866;DHT22;62686;48.984;8.394;2023-03-31T13:23:00;18.60;99.90
38866;DHT22;62686;48.984;8.394;2023-03-31T13:25:48;17.80;99.90
38866;DHT22;62686;48.984;8.394;2023-03-31T13:28:24;18.10;99.90
38866;DHT22;62686;48.984;8.394;2023-03-31T13:30:56;18.10;99.90
38866;DHT22;62686;48.984;8.394;2023-03-31T13:36:22;18.50;99.90
38866;DHT22;62686;48.984;8.394;2023-03-31T13:39:05;18.30;99.90
38866;DHT22;62686;48.984;8.394;2023-03-31T13:41:48;18.60;99.90
38866;DHT22;62686;48.984;8.394;2023-03-31T13:44:49;18.60;99.90
38866;DHT22;62686;48.984;8.394;2023-03-31T13:50:31;17.50;99.90
38866;DHT22;62686;48.984;8.394;2023-03-31T13:53:12;17.50;99.90
38866;DHT22;62686;48.984;8.394;2023-03-31T13:55:59;17.30;99.90
38866;DHT22;62686;48.984;8.394;2023-03-31T13:59:04;17.40;99.90
38866;DHT22;62686;48.984;8.394;2023-03-31T14:01:44;16.90;99.90
38866;DHT22;62686;48.984;8.394;2023-03-31T14:04:38;16.70;99.90
38866;DHT22;62686;48.984;8.394;2023-03-31T14:07:12;16.50;99.90
38866;DHT22;62686;48.984;8.394;2023-03-31T14:09:44;16.10;99.90
38866;DHT22;62686;48.984;8.394;2023-03-31T14:12:20;16.10;99.90
38866;DHT22;62686;48.984;8.394;2023-03-31T14:14:52;16.40;99.90
38866;DHT22;62686;48.984;8.394;2023-03-31T14:17:24;15.90;99.90
38866;DHT22;62686;48.984;8.394;2023-03-31T14:20:21;15.70;99.90
38866;DHT22;62686;48.984;8.394;2023-03-31T14:22:59;15.20;99.90
38866;DHT22;62686;48.984;8.394;2023-03-31T14:25:47;14.40;99.90
38866;DHT22;62686;48.984;8.394;2023-03-31T14:28:31;13.50;99.90
38866;DHT22;62686;48.984;8.394;2023-03-31T14:31:10;12.70;99.90
38866;DHT22;62686;48.984;8.394;2023-03-31T14:33:56;12.30;99.90
38866;DHT22;62686;48.984;8.394;2023-03-31T14:36:33;12.10;99.90
38866;DHT22;62686;48.984;8.394;2023-03-31T14:39:07;12.00;99.90
38866;DHT22;62686;48.984;8.394;2023-03-31T14:41:38;12.20;99.90
38866;DHT22;62686;48.984;8.394;2023-03-31T14:44:13;12.70;99.90
38866;DHT22;62686;48.984;8.394;2023-03-31T14:46:41;13.30;99.90
38866;DHT22;62686;48.984;8.394;2023-03-31T14:49:19;13.80;99.90
38866;DHT22;62686;48.984;8.394;2023-03-31T14:51:51;14.10;99.90
38866;DHT22;62686;48.984;8.394;2023-03-31T14:54:20;14.30;99.90
38866;DHT22;62686;48.984;8.394;2023-03-31T14:56:51;14.40;99.90
38866;DHT22;62686;48.984;8.394;2023-03-31T14:59:25;14.40;99.90
38866;DHT22;62686;48.984;8.394;2023-03-31T15:01:57;14.40;99.90
38866;DHT22;62686;48.984;8.394;2023-03-31T15:04:28;14.10;99.90
38866;DHT22;62686;48.984;8.394;2023-03-31T15:07:05;13.80;99.90
38866;DHT22;62686;48.984;8.394;2023-03-31T15:09:33;13.60;99.90
38866;DHT22;62686;48.984;8.394;2023-03-31T15:12:06;13.30;99.90
38866;DHT22;62686;48.984;8.394;2023-03-31T15:14:38;12.70;99.90
38866;DHT22;62686;48.984;8.394;2023-03-31T15:17:17;12.30;99.90
38866;DHT22;62686;48.984;8.394;2023-03-31T15:19:45;11.80;99.90
38866;DHT22;62686;48.984;8.394;2023-03-31T15:22:21;11.60;99.90
38866;DHT22;62686;48.984;8.394;2023-03-31T15:24:50;11.50;99.90
38866;DHT22;62686;48.984;8.394;2023-03-31T15:27:27;11.50;99.90
38866;DHT22;62686;48.984;8.394;2023-03-31T15:30:03;11.70;99.90
38866;DHT22;62686;48.984;8.394;2023-03-31T15:32:35;12.00;99.90
38866;DHT22;62686;48.984;8.394;2023-03-31T15:35:05;12.30;99.90
38866;DHT22;62686;48.984;8.394;2023-03-31T15:37:42;12.50;99.90
38866;DHT22;62686;48.984;8.394;2023-03-31T15:40:18;12.60;99.90
38866;DHT22;62686;48.984;8.394;2023-03-31T15:42:51;12.90;99.90
38866;DHT22;62686;48.984;8.394;2023-03-31T15:45:37;13.00;99.90
38866;DHT22;62686;48.984;8.394;2023-03-31T15:48:17;13.00;99.90
38866;DHT22;62686;48.984;8.394;2023-03-31T15:50:47;13.10;99.90
38866;DHT22;62686;48.984;8.394;2023-03-31T15:53:25;13.10;99.90
38866;DHT22;62686;48.984;8.394;2023-03-31T15:55:55;13.10;99.90
38866;DHT22;62686;48.984;8.394;2023-03-31T15:58:53;13.00;99.90
38866;DHT22;62686;48.984;8.394;2023-03-31T16:01:25;12.90;99.90
38866;DHT22;62686;48.984;8.394;2023-03-31T16:03:56;12.80;99.90
38866;DHT22;62686;48.984;8.394;2023-03-31T16:06:38;12.70;99.90
38866;DHT22;62686;48.984;8.394;2023-03-31T16:09:11;12.60;99.90
38866;DHT22;62686;48.984;8.394;2023-03-31T16:11:43;12.60;99.90
38866;DHT22;62686;48.984;8.394;2023-03-31T16:14:17;12.50;99.90
38866;DHT22;62686;48.984;8.394;2023-03-31T16:16:53;12.50;99.90
38866;DHT22;62686;48.984;8.394;2023-03-31T16:19:25;12.40;99.90
38866;DHT22;62686;48.984;8.394;2023-03-31T16:21:57;12.40;99.90
38866;DHT22;62686;48.984;8.394;2023-03-31T16:24:30;12.40;99.90
38866;DHT22;62686;48.984;8.394;2023-03-31T16:27:00;12.20;99.90
38866;DHT22;62686;48.984;8.394;2023-03-31T16:29:34;12.10;99.90